Time;durP1;ratioP1;P1;durP2;ratioP2;P2;SDS_P1;SDS_P2;PMS_P1;PMS_P2;Temp;Humidity;BMP_temperature;BMP_pressure;BME280_temperature;BME280_humidity;BME280_pressure;Samples;Min_cycle;Max_cycle;Signal;HPM_P1;HPM_P2
2022/01/03 00:01:07;;;;;;;1.98;0.80;;;11.30;55.70;;;;;;5148618;27;34291;-77
2022/01/03 00:03:33;;;;;;;2.83;0.68;;;11.30;55.70;;;;;;5148939;27;34345;-77
2022/01/03 00:06:00;;;;;;;6.40;0.90;;;11.20;55.60;;;;;;5148121;27;35553;-78
2022/01/03 00:08:28;;;;;;;4.45;0.95;;;11.20;55.60;;;;;;5166264;27;34144;-77
2022/01/03 00:10:56;;;;;;;3.88;0.98;;;11.20;55.50;;;;;;5148699;27;34254;-78
2022/01/03 00:13:23;;;;;;;4.80;0.82;;;11.20;55.30;;;;;;5165542;27;35056;-77
2022/01/03 00:15:52;;;;;;;6.75;0.80;;;11.10;55.60;;;;;;5147637;27;36429;-77
2022/01/03 00:18:19;;;;;;;4.00;0.90;;;11.10;55.50;;;;;;5148136;27;34155;-77
2022/01/03 00:20:58;;;;;;;1.83;0.80;;;11.00;55.20;;;;;;5148494;27;34276;-77
2022/01/03 00:23:28;;;;;;;6.35;0.73;;;11.10;55.20;;;;;;5166694;27;34156;-78
2022/01/03 00:25:59;;;;;;;1.95;0.80;;;11.10;55.20;;;;;;5148658;27;36650;-77
2022/01/03 00:28:33;;;;;;;2.45;0.40;;;11.10;55.20;;;;;;5148341;27;34302;-77
2022/01/03 00:30:59;;;;;;;3.13;0.65;;;11.10;55.00;;;;;;5165599;27;34347;-78
2022/01/03 00:33:27;;;;;;;4.38;0.95;;;11.10;55.00;;;;;;5147943;27;34494;-77
2022/01/03 00:35:58;;;;;;;2.38;0.68;;;11.20;55.00;;;;;;5065148;27;34960;-77
2022/01/03 00:38:27;;;;;;;3.67;0.98;;;11.20;55.10;;;;;;5129435;27;34022;-77
2022/01/03 00:40:54;;;;;;;6.63;0.95;;;11.10;55.00;;;;;;5147632;27;34227;-77
2022/01/03 00:43:20;;;;;;;3.42;0.70;;;11.10;55.10;;;;;;5147909;27;34482;-77
2022/01/03 00:45:46;;;;;;;3.65;0.88;;;11.10;55.20;;;;;;5147201;27;36514;-77
2022/01/03 00:48:13;;;;;;;3.70;1.00;;;11.10;55.20;;;;;;5182086;27;34290;-77
2022/01/03 00:50:39;;;;;;;2.30;0.90;;;11.00;55.10;;;;;;5167301;27;34416;-77
2022/01/03 00:53:06;;;;;;;2.53;0.75;;;11.00;55.20;;;;;;5129862;27;34126;-77
2022/01/03 00:55:32;;;;;;;3.25;0.80;;;11.00;55.30;;;;;;5166296;27;34957;-77
2022/01/03 00:58:07;;;;;;;4.07;0.68;;;10.90;55.40;;;;;;5147590;27;34244;-77
2022/01/03 01:00:37;;;;;;;2.75;0.98;;;10.90;55.40;;;;;;5128203;27;34318;-77
2022/01/03 01:03:12;;;;;;;7.07;0.80;;;10.90;55.40;;;;;;5129912;27;34481;-77
2022/01/03 01:05:41;;;;;;;3.83;1.10;;;10.80;55.30;;;;;;5124400;27;35934;-77
2022/01/03 01:08:08;;;;;;;5.07;1.00;;;10.80;55.50;;;;;;5129632;27;34050;-77
2022/01/03 01:10:37;;;;;;;2.47;0.80;;;10.70;55.60;;;;;;5147737;27;34119;-77
2022/01/03 01:13:07;;;;;;;5.88;0.98;;;10.70;55.60;;;;;;5130331;27;34697;-77
2022/01/03 01:15:34;;;;;;;6.90;1.00;;;10.70;55.60;;;;;;5147233;27;35646;-77
2022/01/03 01:18:03;;;;;;;2.75;0.82;;;10.70;55.70;;;;;;5166034;27;34187;-77
2022/01/03 01:20:31;;;;;;;2.35;0.70;;;10.80;55.70;;;;;;5166204;27;34098;-77
2022/01/03 01:22:57;;;;;;;6.13;0.98;;;10.70;55.70;;;;;;5147663;27;34020;-77
2022/01/03 01:27:46;;;;;;;6.75;1.00;;;10.70;55.70;;;;;;5147246;27;35776;-77
2022/01/03 01:28:13;;;;;;;4.68;0.90;;;10.70;55.80;;;;;;5143935;27;34214;-77
2022/01/03 01:30:40;;;;;;;2.08;0.80;;;10.70;55.90;;;;;;5125583;27;34396;-77
2022/01/03 01:33:15;;;;;;;2.80;1.00;;;10.70;56.00;;;;;;5134198;27;34281;-77
2022/01/03 01:35:58;;;;;;;3.65;0.85;;;10.70;56.00;;;;;;5151755;27;34203;-77
2022/01/03 01:38:30;;;;;;;3.15;0.93;;;10.70;56.10;;;;;;5150626;27;34309;-77
2022/01/03 01:40:58;;;;;;;5.45;0.88;;;10.70;56.00;;;;;;5169117;27;34219;-77
2022/01/03 01:43:41;;;;;;;1.48;0.68;;;10.60;56.00;;;;;;5150630;27;34183;-77
2022/01/03 01:46:13;;;;;;;2.08;0.85;;;10.60;56.00;;;;;;5150212;27;35837;-77
2022/01/03 01:48:42;;;;;;;4.65;0.88;;;10.60;56.20;;;;;;5150654;27;34391;-77
2022/01/03 01:51:11;;;;;;;3.97;0.98;;;10.60;56.10;;;;;;5150803;27;34235;-77
2022/01/03 01:53:47;;;;;;;7.90;0.82;;;10.60;56.10;;;;;;5168319;27;34357;-76
2022/01/03 01:56:20;;;;;;;5.13;1.08;;;10.60;56.10;;;;;;5169223;27;35174;-77
2022/01/03 01:59:20;;;;;;;4.10;0.75;;;10.70;56.10;;;;;;5151212;27;34179;-77
2022/01/03 02:01:59;;;;;;;4.60;1.10;;;10.70;56.00;;;;;;5133021;27;34244;-77
2022/01/03 02:05:04;;;;;;;3.92;0.80;;;10.70;56.10;;;;;;5122706;27;34154;-77
2022/01/03 02:07:57;;;;;;;4.47;1.10;;;10.80;56.00;;;;;;5170648;27;36019;-77
2022/01/03 02:10:33;;;;;;;4.15;0.90;;;10.80;56.10;;;;;;5133383;27;34228;-77
2022/01/03 02:13:01;;;;;;;6.88;0.93;;;10.80;56.10;;;;;;5168084;27;34285;-77
2022/01/03 02:15:27;;;;;;;4.55;0.85;;;10.80;56.00;;;;;;5149615;27;34437;-76
2022/01/03 02:17:53;;;;;;;5.28;1.05;;;10.90;56.10;;;;;;5168957;27;34942;-78
2022/01/03 02:20:23;;;;;;;4.00;0.93;;;10.90;56.10;;;;;;5167529;27;34180;-76
2022/01/03 02:22:50;;;;;;;2.42;0.73;;;10.90;56.10;;;;;;5168807;27;34381;-76
2022/01/03 02:25:20;;;;;;;5.80;1.05;;;11.00;56.10;;;;;;5149791;27;34227;-76
2022/01/03 02:27:49;;;;;;;5.05;1.00;;;11.00;56.00;;;;;;5167563;27;35803;-76
2022/01/03 02:30:18;;;;;;;4.90;1.35;;;11.00;56.00;;;;;;5149439;27;34345;-77
2022/01/03 02:32:45;;;;;;;4.78;1.02;;;11.00;55.90;;;;;;5150651;27;34466;-76
2022/01/03 02:35:11;;;;;;;5.00;0.88;;;11.00;56.00;;;;;;5149974;27;34597;-76
2022/01/03 02:37:38;;;;;;;5.13;1.05;;;11.00;56.10;;;;;;5149600;27;35891;-77
2022/01/03 02:40:07;;;;;;;4.25;0.90;;;11.00;56.20;;;;;;5149429;27;34286;-77
2022/01/03 02:42:33;;;;;;;4.15;0.80;;;11.00;56.10;;;;;;5167177;27;34323;-77
2022/01/03 02:45:11;;;;;;;4.30;1.08;;;11.00;56.10;;;;;;5149813;27;34148;-77
2022/01/03 02:47:39;;;;;;;6.35;1.27;;;11.00;56.20;;;;;;5146495;27;35533;-76
2022/01/03 02:50:08;;;;;;;4.45;1.20;;;10.90;56.20;;;;;;5130395;27;34455;-77
2022/01/03 02:52:34;;;;;;;5.85;1.00;;;10.90;56.30;;;;;;5132504;27;34360;-77
2022/01/03 02:55:00;;;;;;;3.90;1.08;;;10.90;56.20;;;;;;5168401;27;34177;-77
2022/01/03 02:57:34;;;;;;;4.88;1.00;;;10.90;56.30;;;;;;5149380;27;35790;-77
2022/01/03 03:00:00;;;;;;;3.65;0.85;;;10.90;56.30;;;;;;5149642;27;34342;-77
2022/01/03 03:02:27;;;;;;;8.48;1.30;;;10.90;56.20;;;;;;5149874;27;34738;-77
2022/01/03 03:04:58;;;;;;;3.20;0.93;;;10.90;56.20;;;;;;5167935;27;34310;-77
2022/01/03 03:07:27;;;;;;;2.88;1.33;;;10.90;56.00;;;;;;5149449;27;35995;-77
2022/01/03 03:09:53;;;;;;;2.75;0.80;;;11.00;56.30;;;;;;5167462;27;34372;-77
2022/01/03 03:12:20;;;;;;;13.77;1.23;;;11.00;56.20;;;;;;5168171;27;34284;-76
2022/01/03 03:14:47;;;;;;;4.25;0.90;;;11.00;56.00;;;;;;5149948;27;34519;-76
2022/01/03 03:17:13;;;;;;;3.38;1.08;;;11.00;56.10;;;;;;5149530;27;36168;-76
2022/01/03 03:19:57;;;;;;;2.75;0.98;;;11.00;56.10;;;;;;5168157;27;34081;-77
2022/01/03 03:22:26;;;;;;;3.72;0.98;;;10.90;56.30;;;;;;5149560;27;34113;-76
2022/01/03 03:25:01;;;;;;;7.22;1.02;;;10.90;56.30;;;;;;5149528;27;34105;-76
2022/01/03 03:27:27;;;;;;;2.63;0.90;;;10.90;56.30;;;;;;5132099;27;35563;-77
2022/01/03 03:29:53;;;;;;;4.32;1.02;;;10.90;56.30;;;;;;5167139;27;34185;-77
2022/01/03 03:32:19;;;;;;;7.50;1.00;;;10.90;56.30;;;;;;5149621;27;34164;-76
2022/01/03 03:34:47;;;;;;;2.80;0.82;;;10.90;56.40;;;;;;5167274;27;34400;-77
2022/01/03 03:37:15;;;;;;;3.92;0.75;;;10.90;56.50;;;;;;5148484;27;35845;-77
2022/01/03 03:39:43;;;;;;;2.83;0.55;;;10.80;56.40;;;;;;5166525;27;34177;-77
2022/01/03 03:42:11;;;;;;;2.80;0.50;;;10.90;56.60;;;;;;5166411;27;34094;-77
2022/01/03 03:44:38;;;;;;;2.42;0.65;;;10.80;56.50;;;;;;5148953;27;34012;-77
2022/01/03 03:47:10;;;;;;;3.28;1.00;;;10.80;56.40;;;;;;5166638;27;34334;-76
2022/01/03 03:49:36;;;;;;;2.55;0.63;;;10.80;56.50;;;;;;5149200;27;34077;-76
2022/01/03 03:52:03;;;;;;;2.97;0.75;;;10.80;56.50;;;;;;5148733;27;34152;-77
2022/01/03 03:54:31;;;;;;;2.08;0.73;;;10.70;56.50;;;;;;5131249;27;34226;-76
2022/01/03 03:56:57;;;;;;;1.15;0.45;;;10.70;56.50;;;;;;5143948;27;35223;-77
2022/01/03 03:59:25;;;;;;;2.88;0.95;;;10.60;56.40;;;;;;5105053;27;34321;-77
2022/01/03 04:01:52;;;;;;;4.50;0.73;;;10.60;56.50;;;;;;5166945;27;34242;-76
2022/01/03 04:04:18;;;;;;;4.03;0.88;;;10.50;56.60;;;;;;5167235;27;33815;-77
2022/01/03 04:06:45;;;;;;;2.88;0.90;;;10.50;56.70;;;;;;5148237;27;36546;-76
2022/01/03 04:09:11;;;;;;;4.38;0.90;;;10.40;56.60;;;;;;5148255;27;34397;-77
2022/01/03 04:11:37;;;;;;;8.48;1.20;;;10.40;56.70;;;;;;5166639;27;34315;-77
2022/01/03 04:14:03;;;;;;;2.90;1.13;;;10.40;56.70;;;;;;5166531;27;34163;-77
2022/01/03 04:16:29;;;;;;;4.68;0.95;;;10.30;56.80;;;;;;5109823;27;36072;-76
2022/01/03 04:18:55;;;;;;;9.63;0.95;;;10.30;56.80;;;;;;5137921;27;34366;-77
2022/01/03 04:21:21;;;;;;;9.57;1.00;;;10.30;56.90;;;;;;5148229;27;34203;-76
2022/01/03 04:23:47;;;;;;;3.08;0.90;;;10.20;56.90;;;;;;5166594;27;34255;-77
2022/01/03 04:26:14;;;;;;;8.93;1.15;;;10.20;56.90;;;;;;5148100;27;36720;-77
2022/01/03 04:28:40;;;;;;;7.50;1.10;;;10.20;56.90;;;;;;5165392;27;34278;-77
2022/01/03 04:31:06;;;;;;;3.30;1.05;;;10.20;56.90;;;;;;5165679;27;34384;-76
2022/01/03 04:33:32;;;;;;;2.60;0.95;;;10.20;57.00;;;;;;5121287;27;34296;-77
2022/01/03 04:35:59;;;;;;;4.72;1.40;;;10.10;57.10;;;;;;5129199;27;35931;-77
2022/01/03 04:38:25;;;;;;;3.33;1.20;;;10.10;57.10;;;;;;5163563;27;34109;-77
2022/01/03 04:40:51;;;;;;;6.57;1.27;;;10.10;57.10;;;;;;5164799;27;34031;-76
2022/01/03 04:43:17;;;;;;;3.92;1.15;;;10.10;57.80;;;;;;5166033;27;34262;-76
2022/01/03 04:45:44;;;;;;;4.47;1.20;;;10.10;57.20;;;;;;5147988;27;36868;-76
2022/01/03 04:48:10;;;;;;;3.78;1.00;;;10.10;57.10;;;;;;5165187;27;34398;-77
2022/01/03 04:50:37;;;;;;;5.03;0.95;;;10.10;57.10;;;;;;5148002;27;34256;-76
2022/01/03 04:53:03;;;;;;;4.90;1.38;;;10.10;57.10;;;;;;5147647;27;34612;-76
2022/01/03 04:55:29;;;;;;;4.30;0.95;;;10.10;57.00;;;;;;5122228;27;34482;-76
2022/01/03 04:57:55;;;;;;;7.75;1.05;;;10.00;56.90;;;;;;5166523;27;34027;-77
2022/01/03 05:00:21;;;;;;;3.97;0.93;;;10.10;57.10;;;;;;5147421;27;34100;-77
2022/01/03 05:02:47;;;;;;;3.88;1.00;;;10.00;57.00;;;;;;5147678;27;34376;-77
2022/01/03 05:05:14;;;;;;;5.90;1.13;;;9.90;57.00;;;;;;5145981;27;35578;-77
2022/01/03 05:07:40;;;;;;;5.18;1.05;;;9.90;57.00;;;;;;5165405;27;34322;-76
2022/01/03 05:10:06;;;;;;;2.15;0.90;;;9.90;57.10;;;;;;5147161;27;34402;-77
2022/01/03 05:12:32;;;;;;;3.70;0.80;;;9.90;57.00;;;;;;5129868;27;34240;-77
2022/01/03 05:14:58;;;;;;;5.72;1.00;;;9.80;57.00;;;;;;5164148;27;36229;-77
2022/01/03 05:17:25;;;;;;;5.97;1.17;;;9.80;57.00;;;;;;5147208;27;34169;-77
2022/01/03 05:19:51;;;;;;;8.07;1.20;;;9.70;57.10;;;;;;5147542;27;34242;-76
2022/01/03 05:22:17;;;;;;;4.28;1.10;;;9.70;57.20;;;;;;5166367;27;34067;-76
2022/01/03 05:24:43;;;;;;;9.75;1.25;;;9.70;57.30;;;;;;5147014;27;35853;-76
2022/01/03 05:27:09;;;;;;;1.75;0.88;;;9.70;57.30;;;;;;5166107;27;34182;-76
2022/01/03 05:29:35;;;;;;;3.75;1.02;;;9.60;57.20;;;;;;5150347;27;34272;-77
2022/01/03 05:32:01;;;;;;;3.65;1.20;;;9.60;57.20;;;;;;5186500;27;34290;-76
2022/01/03 05:34:27;;;;;;;5.72;0.98;;;9.60;57.10;;;;;;5186182;27;34349;-76
2022/01/03 05:36:53;;;;;;;3.45;0.93;;;9.50;57.30;;;;;;5168081;27;34179;-76
2022/01/03 05:39:20;;;;;;;3.80;1.25;;;9.50;57.40;;;;;;5186545;27;34454;-76
2022/01/03 05:41:46;;;;;;;6.35;1.40;;;9.50;57.40;;;;;;5150374;27;34464;-76
2022/01/03 05:44:12;;;;;;;5.63;1.10;;;9.40;57.30;;;;;;5166828;27;35576;-76
2022/01/03 05:46:38;;;;;;;7.35;1.15;;;9.40;57.60;;;;;;5150639;27;34139;-76
2022/01/03 05:49:06;;;;;;;7.78;1.33;;;9.40;57.60;;;;;;5168104;27;34125;-76
2022/01/03 05:51:32;;;;;;;6.93;1.60;;;9.40;57.60;;;;;;5186453;27;34337;-76
2022/01/03 05:53:59;;;;;;;7.43;1.27;;;9.50;57.80;;;;;;5166821;27;35709;-76
2022/01/03 05:56:25;;;;;;;8.70;1.48;;;9.50;57.80;;;;;;5167654;27;34344;-76
2022/01/03 05:58:51;;;;;;;5.95;1.13;;;9.60;57.80;;;;;;5150660;27;34286;-76
2022/01/03 06:01:20;;;;;;;8.65;1.50;;;9.70;57.80;;;;;;5167344;27;34138;-76
2022/01/03 06:03:46;;;;;;;3.58;1.08;;;9.80;57.60;;;;;;5167576;27;36486;-76
2022/01/03 06:06:30;;;;;;;7.32;1.60;;;9.80;57.50;;;;;;5185710;27;34216;-76
2022/01/03 06:08:56;;;;;;;6.35;1.10;;;9.80;57.40;;;;;;5167728;27;34243;-76
2022/01/03 06:11:23;;;;;;;7.75;1.10;;;9.80;57.50;;;;;;5132168;27;34217;-76
2022/01/03 06:13:49;;;;;;;8.57;1.52;;;10.00;57.50;;;;;;5150033;27;35534;-76
2022/01/03 06:16:15;;;;;;;6.07;1.17;;;10.00;57.40;;;;;;5167615;27;34221;-76
2022/01/03 06:18:43;;;;;;;6.18;0.95;;;10.00;57.40;;;;;;5171519;27;34481;-76
2022/01/03 06:21:10;;;;;;;4.10;1.42;;;10.10;57.40;;;;;;5171097;27;34269;-76
2022/01/03 06:23:36;;;;;;;4.35;1.40;;;10.10;57.30;;;;;;5153747;27;36554;-76
2022/01/03 06:26:03;;;;;;;6.88;1.20;;;10.10;57.30;;;;;;5189680;27;34180;-76
2022/01/03 06:28:29;;;;;;;6.68;1.20;;;10.20;57.20;;;;;;5171129;27;34165;-76
2022/01/03 06:30:55;;;;;;;8.52;1.13;;;10.20;57.20;;;;;;5136604;27;34155;-77
2022/01/03 06:33:21;;;;;;;4.97;1.00;;;10.20;57.20;;;;;;5170605;27;36563;-76
2022/01/03 06:35:47;;;;;;;5.65;1.38;;;10.20;57.20;;;;;;5170900;27;34096;-76
2022/01/03 06:38:13;;;;;;;7.40;1.33;;;10.20;57.10;;;;;;5170081;27;34346;-76
2022/01/03 06:40:39;;;;;;;10.75;1.85;;;10.20;57.20;;;;;;5189040;27;34325;-78
2022/01/03 06:43:05;;;;;;;9.20;1.25;;;10.30;57.40;;;;;;5189322;27;34500;-76
2022/01/03 06:45:31;;;;;;;8.57;1.58;;;10.30;57.30;;;;;;5170991;27;34595;-76
2022/01/03 06:47:58;;;;;;;5.22;0.82;;;10.30;57.30;;;;;;5171151;27;34238;-76
2022/01/03 06:50:24;;;;;;;4.93;1.10;;;10.40;57.20;;;;;;5170592;27;34900;-76
2022/01/03 06:52:50;;;;;;;9.02;1.35;;;10.40;57.20;;;;;;5170300;27;35637;-77
2022/01/03 06:55:17;;;;;;;6.13;1.60;;;10.40;57.20;;;;;;5153783;27;34499;-77
2022/01/03 06:57:43;;;;;;;12.73;1.40;;;10.50;57.30;;;;;;5170383;27;34385;-76
2022/01/03 07:00:09;;;;;;;8.77;1.45;;;10.50;57.30;;;;;;5152818;27;34332;-76
2022/01/03 07:02:35;;;;;;;9.32;1.83;;;10.50;57.20;;;;;;5170375;27;36404;-77
2022/01/03 07:05:02;;;;;;;9.75;1.35;;;10.50;57.30;;;;;;5171638;27;34139;-76
2022/01/03 07:07:28;;;;;;;9.60;1.48;;;10.50;57.30;;;;;;5154092;27;34188;-76
2022/01/03 07:09:54;;;;;;;12.18;1.80;;;10.60;57.30;;;;;;5190311;27;34323;-76
2022/01/03 07:12:20;;;;;;;8.60;1.67;;;10.60;57.20;;;;;;5171328;27;35906;-76
2022/01/03 07:20:13;;;;;;;5.47;1.00;;;10.60;57.30;;;;;;5173775;27;34191;-76
2022/01/03 07:22:41;;;;;;;7.07;1.48;;;10.60;57.30;;;;;;5170891;27;36182;-77
2022/01/03 07:25:08;;;;;;;4.47;1.38;;;10.60;57.30;;;;;;5170664;27;34205;-77
2022/01/03 07:27:34;;;;;;;7.82;1.40;;;10.60;57.30;;;;;;5152770;27;34134;-77
2022/01/03 07:30:00;;;;;;;4.78;1.13;;;10.60;57.50;;;;;;5170406;27;33989;-77
2022/01/03 07:32:26;;;;;;;5.53;1.48;;;10.60;57.50;;;;;;5153118;27;35756;-78
2022/01/03 07:34:52;;;;;;;5.13;1.13;;;10.50;57.60;;;;;;5136260;27;34216;-77
2022/01/03 07:37:18;;;;;;;5.57;1.23;;;10.50;57.70;;;;;;5151724;27;34155;-77
2022/01/03 07:39:44;;;;;;;7.32;1.38;;;10.50;57.70;;;;;;5169647;27;34424;-77
2022/01/03 07:42:10;;;;;;;7.00;1.35;;;10.50;57.70;;;;;;5170632;27;34686;-78
2022/01/03 07:44:36;;;;;;;8.85;1.48;;;10.50;57.80;;;;;;5170045;27;34289;-77
2022/01/03 07:47:03;;;;;;;7.63;1.20;;;10.50;57.80;;;;;;5189178;27;34124;-77
2022/01/03 07:49:48;;;;;;;5.25;1.20;;;10.50;57.80;;;;;;5153282;27;34217;-77
2022/01/03 07:52:14;;;;;;;5.20;1.50;;;10.50;58.40;;;;;;5169905;27;35885;-77
2022/01/03 07:54:40;;;;;;;8.35;1.38;;;10.40;57.90;;;;;;5170266;27;34102;-77
2022/01/03 07:57:06;;;;;;;7.95;1.25;;;10.40;58.00;;;;;;5170158;27;34127;-77
2022/01/03 07:59:32;;;;;;;8.38;1.40;;;10.40;58.00;;;;;;5153032;27;34039;-77
2022/01/03 08:01:59;;;;;;;4.35;1.40;;;10.40;58.00;;;;;;5169488;27;36441;-77
2022/01/03 08:04:26;;;;;;;4.15;1.05;;;10.40;58.70;;;;;;5169290;27;34327;-77
2022/01/03 08:06:52;;;;;;;12.20;1.55;;;10.40;58.10;;;;;;5186970;27;34300;-77
2022/01/03 08:09:18;;;;;;;13.63;1.95;;;10.40;58.10;;;;;;5168079;27;34595;-77
2022/01/03 08:11:44;;;;;;;7.28;1.50;;;10.40;58.10;;;;;;5151669;27;35225;-77
2022/01/03 08:14:10;;;;;;;7.90;1.60;;;10.50;58.00;;;;;;5151175;27;34226;-77
2022/01/03 08:16:37;;;;;;;4.53;1.55;;;10.50;58.10;;;;;;5168833;27;34168;-77
2022/01/03 08:19:03;;;;;;;5.40;1.50;;;10.60;57.90;;;;;;5169691;27;34138;-77
2022/01/03 08:21:29;;;;;;;5.15;1.50;;;10.60;58.00;;;;;;5169426;27;35770;-77
2022/01/03 08:23:55;;;;;;;7.95;1.60;;;10.60;58.00;;;;;;5170020;27;34335;-78
2022/01/03 08:26:21;;;;;;;6.10;1.10;;;10.60;58.00;;;;;;5188458;27;34507;-77
2022/01/03 08:28:47;;;;;;;7.80;1.35;;;10.60;58.00;;;;;;5152707;27;34378;-77
2022/01/03 08:31:14;;;;;;;9.80;1.50;;;10.60;57.90;;;;;;5168634;27;35610;-77
2022/01/03 08:33:40;;;;;;;7.95;1.38;;;10.60;57.90;;;;;;5186881;27;34183;-77
2022/01/03 08:36:06;;;;;;;10.35;1.67;;;10.60;57.90;;;;;;5187997;27;34158;-77
2022/01/03 08:38:32;;;;;;;9.98;1.15;;;10.70;58.10;;;;;;5169801;27;34066;-77
2022/01/03 08:40:58;;;;;;;14.93;1.58;;;10.70;58.10;;;;;;5155359;27;34426;-77
2022/01/03 08:43:24;;;;;;;7.25;1.50;;;10.70;58.10;;;;;;5147052;27;34447;-77
2022/01/03 08:45:50;;;;;;;6.13;1.33;;;10.70;58.10;;;;;;5149209;27;34296;-77
2022/01/03 08:48:16;;;;;;;11.20;1.45;;;10.70;58.10;;;;;;5148307;27;34264;-77
2022/01/03 08:50:42;;;;;;;8.40;1.33;;;10.70;58.10;;;;;;5146524;27;36469;-77
2022/01/03 08:53:09;;;;;;;8.52;1.40;;;10.70;58.20;;;;;;5146946;27;34271;-77
2022/01/03 08:55:35;;;;;;;6.10;1.38;;;10.70;58.00;;;;;;5166265;27;34186;-77
2022/01/03 08:58:01;;;;;;;6.80;1.23;;;10.70;58.00;;;;;;5166001;27;34085;-77
2022/01/03 09:00:27;;;;;;;6.63;1.02;;;10.70;58.10;;;;;;5165480;27;34512;-77
2022/01/03 09:02:53;;;;;;;6.28;1.42;;;10.70;58.10;;;;;;5165468;27;34105;-77
2022/01/03 09:05:19;;;;;;;3.60;1.15;;;10.70;58.20;;;;;;5112435;27;34401;-76
2022/01/03 09:07:45;;;;;;;6.13;1.42;;;10.70;58.10;;;;;;5130209;27;34492;-76
2022/01/03 09:10:11;;;;;;;6.18;1.40;;;10.70;58.30;;;;;;5129172;27;34341;-76
2022/01/03 09:12:37;;;;;;;5.35;1.25;;;10.70;58.20;;;;;;5146997;27;34098;-77
2022/01/03 09:15:04;;;;;;;10.73;1.60;;;10.70;58.20;;;;;;5165607;27;34148;-77
2022/01/03 09:17:30;;;;;;;5.28;1.15;;;10.70;58.30;;;;;;5130369;27;34266;-77
2022/01/03 09:19:56;;;;;;;4.10;1.67;;;10.70;58.30;;;;;;5146817;27;35477;-77
2022/01/03 09:22:29;;;;;;;6.53;1.33;;;10.80;58.30;;;;;;5147256;27;34094;-77
2022/01/03 09:30:24;;;;;;;13.38;1.73;;;10.80;58.20;;;;;;5164344;27;34462;-77
2022/01/03 09:32:50;;;;;;;8.95;1.85;;;10.80;58.30;;;;;;5165434;27;34377;-77
2022/01/03 09:35:17;;;;;;;11.02;1.77;;;10.90;58.20;;;;;;5146587;27;34234;-77
2022/01/03 09:37:43;;;;;;;7.70;1.77;;;10.90;58.20;;;;;;5164732;27;34131;-77
2022/01/03 09:40:09;;;;;;;9.95;1.45;;;11.00;58.10;;;;;;5145292;27;35826;-79
2022/01/03 09:42:36;;;;;;;6.70;1.55;;;11.00;58.10;;;;;;5129442;27;34125;-77
2022/01/03 09:45:06;;;;;;;5.68;1.25;;;11.00;58.70;;;;;;5146260;27;34094;-77
2022/01/03 09:47:33;;;;;;;8.48;1.63;;;11.10;58.00;;;;;;5146950;27;34148;-77
2022/01/03 09:50:00;;;;;;;8.88;1.23;;;11.10;57.90;;;;;;5145921;27;35569;-77
2022/01/03 09:52:27;;;;;;;8.82;1.63;;;11.10;57.90;;;;;;5148324;27;34201;-77
2022/01/03 09:54:55;;;;;;;8.38;1.23;;;11.10;58.00;;;;;;5149681;27;34104;-77
2022/01/03 09:57:22;;;;;;;8.95;1.67;;;11.20;57.80;;;;;;5151170;27;34403;-77
2022/01/03 09:59:49;;;;;;;8.27;1.70;;;11.20;57.70;;;;;;5150943;27;35598;-77
2022/01/03 10:02:17;;;;;;;5.35;1.80;;;11.30;57.80;;;;;;5151280;27;34245;-76
2022/01/03 10:04:44;;;;;;;11.15;1.58;;;11.30;57.70;;;;;;5116917;27;34058;-77
2022/01/03 10:07:14;;;;;;;10.52;1.88;;;11.40;57.60;;;;;;5168460;27;34299;-77
2022/01/03 10:09:40;;;;;;;6.80;1.17;;;11.40;57.50;;;;;;5149374;27;36040;-77
2022/01/03 10:12:10;;;;;;;9.10;1.40;;;11.40;57.50;;;;;;5149637;27;34294;-78
2022/01/03 10:14:36;;;;;;;7.18;1.45;;;11.40;57.40;;;;;;5115449;27;34277;-77
2022/01/03 10:17:02;;;;;;;6.10;1.60;;;11.50;57.50;;;;;;5149873;27;34212;-77
2022/01/03 10:19:28;;;;;;;8.98;1.55;;;11.50;57.40;;;;;;5132133;27;36680;-77
2022/01/03 10:21:55;;;;;;;9.00;1.45;;;11.60;57.30;;;;;;5168079;27;34297;-78
2022/01/03 10:24:33;;;;;;;4.78;1.20;;;11.50;57.20;;;;;;5167830;27;34285;-77
2022/01/03 10:26:59;;;;;;;11.00;1.83;;;11.60;57.00;;;;;;5168322;27;34288;-78
2022/01/03 10:29:30;;;;;;;9.35;1.10;;;11.70;57.20;;;;;;5149981;27;36282;-77
2022/01/03 10:31:59;;;;;;;7.78;1.38;;;11.70;57.00;;;;;;5132750;27;34321;-77
2022/01/03 10:34:27;;;;;;;5.95;1.13;;;11.80;57.10;;;;;;5168741;27;34204;-77
2022/01/03 10:36:55;;;;;;;6.57;1.27;;;11.80;56.90;;;;;;5150152;27;34434;-77
2022/01/03 10:39:25;;;;;;;7.45;1.60;;;11.80;57.60;;;;;;5115606;27;35834;-77
2022/01/03 10:41:55;;;;;;;9.43;1.60;;;11.90;56.80;;;;;;5170156;27;34177;-77
2022/01/03 10:44:34;;;;;;;11.80;1.40;;;11.90;56.70;;;;;;5171624;27;34380;-77
2022/01/03 10:47:02;;;;;;;8.65;1.50;;;11.90;56.50;;;;;;5154846;27;34067;-77
2022/01/03 10:49:28;;;;;;;6.05;1.83;;;11.90;56.60;;;;;;5154909;27;35583;-76
2022/01/03 10:52:11;;;;;;;10.02;1.35;;;11.90;56.50;;;;;;5152377;27;34282;-77
2022/01/03 10:54:37;;;;;;;10.52;1.33;;;11.90;56.10;;;;;;5170853;27;34059;-78
2022/01/03 10:57:04;;;;;;;4.88;1.33;;;11.90;56.50;;;;;;5152481;27;34266;-77
2022/01/03 10:59:31;;;;;;;8.85;1.52;;;11.80;56.60;;;;;;5169189;27;35695;-77
2022/01/03 11:02:07;;;;;;;3.20;0.82;;;11.70;56.50;;;;;;5170183;27;34366;-76
2022/01/03 11:13:10;;;;;;;2.78;0.88;;;10.90;55.50;;;;;;5172266;27;34197;-76
2022/01/03 11:15:37;;;;;;;3.88;0.75;;;10.70;55.70;;;;;;5152307;27;34269;-76
2022/01/03 11:18:20;;;;;;;4.25;0.75;;;10.50;56.20;;;;;;5168985;27;34307;-77
2022/01/03 11:20:50;;;;;;;1.85;0.80;;;10.40;55.60;;;;;;5168701;27;35999;-76
2022/01/03 11:23:22;;;;;;;1.55;0.50;;;10.20;56.50;;;;;;5151704;27;34198;-76
2022/01/03 11:25:49;;;;;;;3.63;0.75;;;10.20;56.80;;;;;;5152894;27;34232;-76
2022/01/03 11:28:16;;;;;;;0.90;0.50;;;10.10;57.10;;;;;;5169783;27;34389;-76
2022/01/03 11:30:45;;;;;;;4.75;0.90;;;10.10;56.90;;;;;;5169415;27;35886;-76
2022/01/03 11:33:13;;;;;;;1.88;0.57;;;10.10;56.80;;;;;;5169206;27;34198;-76
2022/01/03 11:35:47;;;;;;;3.92;0.80;;;10.10;57.10;;;;;;5169158;27;34261;-76
2022/01/03 11:38:19;;;;;;;2.50;0.75;;;10.20;57.00;;;;;;5187997;27;34463;-76
2022/01/03 11:40:46;;;;;;;3.65;0.88;;;10.20;57.10;;;;;;5187925;27;34505;-76
2022/01/03 11:43:13;;;;;;;2.83;0.95;;;10.30;57.10;;;;;;5169233;27;34423;-76
2022/01/03 11:45:40;;;;;;;2.92;0.93;;;10.30;57.10;;;;;;5169503;27;34401;-76
2022/01/03 11:48:08;;;;;;;0.98;0.60;;;10.50;57.10;;;;;;5169447;27;34219;-76
2022/01/03 11:50:37;;;;;;;4.45;1.20;;;10.60;57.20;;;;;;5160802;27;36708;-76
2022/01/03 11:53:05;;;;;;;3.20;0.80;;;10.60;56.70;;;;;;5152004;27;34096;-76
2022/01/03 11:55:33;;;;;;;4.05;0.90;;;10.70;56.80;;;;;;5169386;27;34262;-76
2022/01/03 11:58:14;;;;;;;3.20;0.88;;;10.70;56.80;;;;;;5152178;27;34476;-76
2022/01/03 12:03:37;;;;;;;4.35;0.80;;;10.80;56.90;;;;;;5156314;27;34497;-76
2022/01/03 12:03:50;;;;;;;6.90;0.90;;;10.90;57.10;;;;;;5157794;27;34207;-76
2022/01/03 12:06:26;;;;;;;3.03;0.90;;;10.90;57.00;;;;;;5188171;27;34180;-76
2022/01/03 12:08:56;;;;;;;1.42;0.55;;;11.00;57.30;;;;;;5169825;27;34557;-76
2022/01/03 12:11:25;;;;;;;6.47;0.95;;;11.00;57.10;;;;;;5168536;27;35669;-76
2022/01/03 12:13:54;;;;;;;3.55;1.13;;;10.90;57.10;;;;;;5180646;27;34094;-76
2022/01/03 12:16:46;;;;;;;7.97;1.92;;;10.90;57.20;;;;;;5166702;27;34226;-76
2022/01/03 12:19:28;;;;;;;4.07;1.30;;;10.90;57.40;;;;;;5187216;27;34424;-76
2022/01/03 12:21:57;;;;;;;7.55;0.95;;;11.00;57.30;;;;;;5167885;27;35894;-76
2022/01/03 12:24:40;;;;;;;7.30;1.10;;;11.00;57.40;;;;;;5151170;27;34298;-76
2022/01/03 12:27:29;;;;;;;8.05;1.45;;;11.00;57.50;;;;;;5151762;27;34201;-76
2022/01/03 12:30:09;;;;;;;9.35;1.40;;;11.10;58.00;;;;;;5173290;27;34145;-76
2022/01/03 12:32:40;;;;;;;7.53;1.25;;;11.20;57.70;;;;;;5169647;27;36261;-76
2022/01/03 12:35:23;;;;;;;7.38;1.23;;;11.20;57.40;;;;;;5161270;27;34120;-76
2022/01/03 12:38:12;;;;;;;7.82;1.30;;;11.30;57.90;;;;;;5188156;27;34204;-77
2022/01/03 12:40:56;;;;;;;9.95;1.45;;;11.30;58.10;;;;;;5173241;27;34182;-77
2022/01/03 12:43:39;;;;;;;7.78;1.77;;;11.40;57.70;;;;;;5169730;27;35603;-77
2022/01/03 12:46:16;;;;;;;9.40;2.15;;;11.30;58.00;;;;;;5170341;27;34143;-77
2022/01/03 12:48:42;;;;;;;7.40;1.70;;;11.40;57.70;;;;;;5169365;27;34201;-76
2022/01/03 12:51:12;;;;;;;6.15;1.38;;;11.40;57.50;;;;;;5169301;27;34268;-77
2022/01/03 12:53:43;;;;;;;3.38;1.27;;;11.40;57.30;;;;;;5151720;27;36488;-77
2022/01/03 12:56:19;;;;;;;9.50;1.58;;;11.40;57.40;;;;;;5168950;27;34179;-77
2022/01/03 12:58:48;;;;;;;8.48;1.35;;;11.40;57.50;;;;;;5151348;27;34346;-77
2022/01/03 13:01:27;;;;;;;6.07;1.30;;;11.40;57.40;;;;;;5149864;27;34399;-77
2022/01/03 13:03:55;;;;;;;8.35;1.33;;;11.50;57.40;;;;;;5150591;27;35596;-77
2022/01/03 13:06:29;;;;;;;8.23;1.58;;;11.50;57.40;;;;;;5167446;27;34153;-77
2022/01/03 13:09:08;;;;;;;8.15;1.55;;;11.50;57.40;;;;;;5150910;27;34207;-77
2022/01/03 13:11:39;;;;;;;8.52;1.50;;;11.60;57.30;;;;;;5151004;27;34574;-77
2022/01/03 13:14:14;;;;;;;6.45;1.58;;;11.50;57.30;;;;;;5167154;27;35839;-77
2022/01/03 13:16:43;;;;;;;8.75;1.73;;;11.60;58.20;;;;;;5168879;27;34105;-77